sensor_id;sensor_type;location;lat;lon;timestamp;P1;durP1;ratioP1;P2;durP2;ratioP2
7487;SDS011;3785;52.260;4.728;2022-11-23T00:00:09;6.95;;;4.70;;
7487;SDS011;3785;52.260;4.728;2022-11-23T00:03:31;11.68;;;4.72;;
7487;SDS011;3785;52.260;4.728;2022-11-23T00:06:51;8.35;;;5.15;;
7487;SDS011;3785;52.260;4.728;2022-11-23T00:10:12;8.18;;;5.22;;
7487;SDS011;3785;52.260;4.728;2022-11-23T00:13:33;8.15;;;5.05;;
7487;SDS011;3785;52.260;4.728;2022-11-23T00:16:54;9.10;;;4.97;;
7487;SDS011;3785;52.260;4.728;2022-11-23T00:20:15;9.18;;;5.20;;
7487;SDS011;3785;52.260;4.728;2022-11-23T00:23:36;9.27;;;5.18;;
7487;SDS011;3785;52.260;4.728;2022-11-23T00:26:56;8.57;;;4.93;;
7487;SDS011;3785;52.260;4.728;2022-11-23T00:30:17;8.30;;;5.38;;
7487;SDS011;3785;52.260;4.728;2022-11-23T00:33:38;10.32;;;5.38;;
7487;SDS011;3785;52.260;4.728;2022-11-23T00:36:58;9.38;;;4.80;;
7487;SDS011;3785;52.260;4.728;2022-11-23T00:40:19;8.75;;;4.85;;
7487;SDS011;3785;52.260;4.728;2022-11-23T00:43:40;10.10;;;4.95;;
7487;SDS011;3785;52.260;4.728;2022-11-23T00:47:01;9.50;;;5.30;;
7487;SDS011;3785;52.260;4.728;2022-11-23T00:50:21;8.52;;;4.93;;
7487;SDS011;3785;52.260;4.728;2022-11-23T00:53:42;10.23;;;5.30;;
7487;SDS011;3785;52.260;4.728;2022-11-23T00:57:02;9.55;;;5.60;;
7487;SDS011;3785;52.260;4.728;2022-11-23T01:00:23;8.00;;;4.88;;
7487;SDS011;3785;52.260;4.728;2022-11-23T01:03:45;10.40;;;5.13;;
7487;SDS011;3785;52.260;4.728;2022-11-23T01:07:07;11.18;;;5.20;;
7487;SDS011;3785;52.260;4.728;2022-11-23T01:10:30;9.73;;;4.95;;
7487;SDS011;3785;52.260;4.728;2022-11-23T01:13:51;10.48;;;5.80;;
7487;SDS011;3785;52.260;4.728;2022-11-23T01:17:12;10.27;;;5.80;;
7487;SDS011;3785;52.260;4.728;2022-11-23T01:20:33;11.98;;;6.30;;
7487;SDS011;3785;52.260;4.728;2022-11-23T01:23:54;8.98;;;5.40;;
7487;SDS011;3785;52.260;4.728;2022-11-23T01:27:15;11.40;;;5.53;;
7487;SDS011;3785;52.260;4.728;2022-11-23T01:30:36;8.35;;;5.43;;
7487;SDS011;3785;52.260;4.728;2022-11-23T01:33:57;8.27;;;5.30;;
7487;SDS011;3785;52.260;4.728;2022-11-23T01:37:19;11.40;;;5.80;;
7487;SDS011;3785;52.260;4.728;2022-11-23T01:40:40;10.40;;;5.78;;
7487;SDS011;3785;52.260;4.728;2022-11-23T01:47:41;14.05;;;6.53;;
7487;SDS011;3785;52.260;4.728;2022-11-23T01:51:04;8.73;;;5.18;;
7487;SDS011;3785;52.260;4.728;2022-11-23T01:54:28;10.32;;;6.05;;
7487;SDS011;3785;52.260;4.728;2022-11-23T01:57:50;13.85;;;6.10;;
7487;SDS011;3785;52.260;4.728;2022-11-23T02:01:12;10.25;;;6.15;;
7487;SDS011;3785;52.260;4.728;2022-11-23T02:04:36;9.15;;;5.72;;
7487;SDS011;3785;52.260;4.728;2022-11-23T02:07:59;11.55;;;6.30;;
7487;SDS011;3785;52.260;4.728;2022-11-23T02:11:20;10.73;;;6.07;;
7487;SDS011;3785;52.260;4.728;2022-11-23T02:14:41;10.02;;;5.93;;
7487;SDS011;3785;52.260;4.728;2022-11-23T02:18:03;11.60;;;6.07;;
7487;SDS011;3785;52.260;4.728;2022-11-23T02:21:28;11.70;;;6.50;;
7487;SDS011;3785;52.260;4.728;2022-11-23T02:24:49;10.35;;;6.03;;
7487;SDS011;3785;52.260;4.728;2022-11-23T02:28:21;9.82;;;5.95;;
7487;SDS011;3785;52.260;4.728;2022-11-23T02:31:44;10.63;;;6.00;;
7487;SDS011;3785;52.260;4.728;2022-11-23T02:35:04;8.50;;;6.07;;
7487;SDS011;3785;52.260;4.728;2022-11-23T02:38:27;11.98;;;6.28;;
7487;SDS011;3785;52.260;4.728;2022-11-23T02:41:50;9.07;;;5.38;;
7487;SDS011;3785;52.260;4.728;2022-11-23T02:45:18;9.30;;;5.35;;
7487;SDS011;3785;52.260;4.728;2022-11-23T02:48:47;8.90;;;4.63;;
7487;SDS011;3785;52.260;4.728;2022-11-23T02:52:07;9.15;;;4.80;;
7487;SDS011;3785;52.260;4.728;2022-11-23T02:55:28;9.00;;;5.25;;
7487;SDS011;3785;52.260;4.728;2022-11-23T02:58:49;8.68;;;4.43;;
7487;SDS011;3785;52.260;4.728;2022-11-23T03:02:09;6.47;;;4.57;;
7487;SDS011;3785;52.260;4.728;2022-11-23T03:05:30;6.65;;;4.10;;
7487;SDS011;3785;52.260;4.728;2022-11-23T03:08:51;9.57;;;4.20;;
7487;SDS011;3785;52.260;4.728;2022-11-23T03:12:11;8.07;;;4.03;;
7487;SDS011;3785;52.260;4.728;2022-11-23T03:15:32;6.65;;;3.83;;
7487;SDS011;3785;52.260;4.728;2022-11-23T03:18:52;6.25;;;4.13;;
7487;SDS011;3785;52.260;4.728;2022-11-23T03:22:13;8.40;;;4.68;;
7487;SDS011;3785;52.260;4.728;2022-11-23T03:25:34;11.43;;;4.55;;
7487;SDS011;3785;52.260;4.728;2022-11-23T03:32:52;9.50;;;5.00;;
7487;SDS011;3785;52.260;4.728;2022-11-23T03:36:13;9.38;;;4.63;;
7487;SDS011;3785;52.260;4.728;2022-11-23T03:39:33;11.60;;;6.03;;
7487;SDS011;3785;52.260;4.728;2022-11-23T03:42:54;6.85;;;4.50;;
7487;SDS011;3785;52.260;4.728;2022-11-23T03:46:14;9.45;;;5.63;;
7487;SDS011;3785;52.260;4.728;2022-11-23T03:49:35;8.55;;;5.88;;
7487;SDS011;3785;52.260;4.728;2022-11-23T03:52:56;8.77;;;5.65;;
7487;SDS011;3785;52.260;4.728;2022-11-23T03:56:18;9.80;;;4.97;;
7487;SDS011;3785;52.260;4.728;2022-11-23T03:59:39;9.23;;;4.90;;
7487;SDS011;3785;52.260;4.728;2022-11-23T04:03:00;8.57;;;5.15;;
7487;SDS011;3785;52.260;4.728;2022-11-23T04:06:21;9.93;;;5.43;;
7487;SDS011;3785;52.260;4.728;2022-11-23T04:09:41;10.07;;;5.32;;
7487;SDS011;3785;52.260;4.728;2022-11-23T04:13:02;8.70;;;5.32;;
7487;SDS011;3785;52.260;4.728;2022-11-23T04:16:22;10.35;;;6.18;;
7487;SDS011;3785;52.260;4.728;2022-11-23T04:19:43;7.13;;;5.55;;
7487;SDS011;3785;52.260;4.728;2022-11-23T04:23:04;9.02;;;5.82;;
7487;SDS011;3785;52.260;4.728;2022-11-23T04:26:25;6.88;;;4.55;;
7487;SDS011;3785;52.260;4.728;2022-11-23T04:29:45;8.38;;;4.97;;
7487;SDS011;3785;52.260;4.728;2022-11-23T04:33:06;10.63;;;5.25;;
7487;SDS011;3785;52.260;4.728;2022-11-23T04:36:27;7.15;;;4.68;;
7487;SDS011;3785;52.260;4.728;2022-11-23T04:39:47;7.32;;;4.88;;
7487;SDS011;3785;52.260;4.728;2022-11-23T04:43:08;6.93;;;4.80;;
7487;SDS011;3785;52.260;4.728;2022-11-23T04:46:29;8.90;;;4.55;;
7487;SDS011;3785;52.260;4.728;2022-11-23T04:49:49;8.90;;;4.38;;
7487;SDS011;3785;52.260;4.728;2022-11-23T04:53:10;7.68;;;4.40;;
7487;SDS011;3785;52.260;4.728;2022-11-23T04:56:31;10.20;;;4.57;;
7487;SDS011;3785;52.260;4.728;2022-11-23T04:59:51;6.88;;;4.20;;
7487;SDS011;3785;52.260;4.728;2022-11-23T05:03:12;7.22;;;3.80;;
7487;SDS011;3785;52.260;4.728;2022-11-23T05:06:33;7.20;;;4.15;;
7487;SDS011;3785;52.260;4.728;2022-11-23T05:09:54;6.70;;;4.15;;
7487;SDS011;3785;52.260;4.728;2022-11-23T05:13:14;7.80;;;4.40;;
7487;SDS011;3785;52.260;4.728;2022-11-23T05:16:35;6.82;;;4.15;;
7487;SDS011;3785;52.260;4.728;2022-11-23T05:19:56;8.13;;;4.18;;
7487;SDS011;3785;52.260;4.728;2022-11-23T05:23:16;6.85;;;3.95;;
7487;SDS011;3785;52.260;4.728;2022-11-23T05:26:37;9.05;;;4.47;;
7487;SDS011;3785;52.260;4.728;2022-11-23T05:29:58;8.05;;;4.45;;
7487;SDS011;3785;52.260;4.728;2022-11-23T05:33:19;5.55;;;4.30;;
7487;SDS011;3785;52.260;4.728;2022-11-23T05:36:40;6.97;;;4.70;;
7487;SDS011;3785;52.260;4.728;2022-11-23T05:40:00;9.02;;;4.40;;
7487;SDS011;3785;52.260;4.728;2022-11-23T05:43:21;6.90;;;3.83;;
7487;SDS011;3785;52.260;4.728;2022-11-23T05:46:42;6.32;;;3.80;;
7487;SDS011;3785;52.260;4.728;2022-11-23T05:50:02;7.47;;;3.95;;
7487;SDS011;3785;52.260;4.728;2022-11-23T05:53:23;9.43;;;3.65;;
7487;SDS011;3785;52.260;4.728;2022-11-23T05:56:44;6.22;;;3.85;;
7487;SDS011;3785;52.260;4.728;2022-11-23T06:00:05;7.93;;;4.05;;
7487;SDS011;3785;52.260;4.728;2022-11-23T06:03:26;10.20;;;3.50;;
7487;SDS011;3785;52.260;4.728;2022-11-23T06:06:47;7.50;;;4.05;;
7487;SDS011;3785;52.260;4.728;2022-11-23T06:10:08;8.32;;;3.67;;
7487;SDS011;3785;52.260;4.728;2022-11-23T06:13:29;6.00;;;4.20;;
7487;SDS011;3785;52.260;4.728;2022-11-23T06:16:50;7.40;;;4.22;;
7487;SDS011;3785;52.260;4.728;2022-11-23T06:20:11;7.45;;;4.43;;
7487;SDS011;3785;52.260;4.728;2022-11-23T06:23:32;7.57;;;4.88;;
7487;SDS011;3785;52.260;4.728;2022-11-23T06:26:52;9.60;;;5.20;;
7487;SDS011;3785;52.260;4.728;2022-11-23T06:30:13;9.40;;;4.63;;
7487;SDS011;3785;52.260;4.728;2022-11-23T06:33:34;9.15;;;5.00;;
7487;SDS011;3785;52.260;4.728;2022-11-23T06:36:55;11.98;;;5.57;;
7487;SDS011;3785;52.260;4.728;2022-11-23T06:40:16;9.68;;;5.70;;
7487;SDS011;3785;52.260;4.728;2022-11-23T06:43:37;10.98;;;6.25;;
7487;SDS011;3785;52.260;4.728;2022-11-23T06:46:57;9.98;;;6.30;;
7487;SDS011;3785;52.260;4.728;2022-11-23T06:50:18;8.02;;;5.30;;
7487;SDS011;3785;52.260;4.728;2022-11-23T06:53:38;9.88;;;5.57;;
7487;SDS011;3785;52.260;4.728;2022-11-23T06:56:59;7.85;;;4.75;;
7487;SDS011;3785;52.260;4.728;2022-11-23T07:00:20;7.70;;;3.72;;
7487;SDS011;3785;52.260;4.728;2022-11-23T07:03:40;7.63;;;3.45;;
7487;SDS011;3785;52.260;4.728;2022-11-23T07:07:01;6.03;;;3.00;;
7487;SDS011;3785;52.260;4.728;2022-11-23T07:10:22;6.78;;;2.65;;
7487;SDS011;3785;52.260;4.728;2022-11-23T07:13:42;5.03;;;2.10;;
7487;SDS011;3785;52.260;4.728;2022-11-23T07:17:03;6.63;;;2.35;;
7487;SDS011;3785;52.260;4.728;2022-11-23T07:20:24;6.32;;;2.10;;
7487;SDS011;3785;52.260;4.728;2022-11-23T07:23:45;7.07;;;1.95;;
7487;SDS011;3785;52.260;4.728;2022-11-23T07:27:05;4.10;;;1.52;;
7487;SDS011;3785;52.260;4.728;2022-11-23T07:30:27;5.15;;;1.73;;
7487;SDS011;3785;52.260;4.728;2022-11-23T07:33:48;2.60;;;1.50;;
7487;SDS011;3785;52.260;4.728;2022-11-23T07:37:09;6.88;;;2.25;;
7487;SDS011;3785;52.260;4.728;2022-11-23T07:40:30;3.63;;;1.65;;
7487;SDS011;3785;52.260;4.728;2022-11-23T07:43:50;3.85;;;2.20;;
7487;SDS011;3785;52.260;4.728;2022-11-23T07:47:11;4.18;;;2.13;;
7487;SDS011;3785;52.260;4.728;2022-11-23T07:50:32;2.78;;;1.92;;
7487;SDS011;3785;52.260;4.728;2022-11-23T07:53:53;2.80;;;1.98;;
7487;SDS011;3785;52.260;4.728;2022-11-23T07:57:14;5.30;;;2.42;;
7487;SDS011;3785;52.260;4.728;2022-11-23T08:00:34;4.72;;;1.95;;
7487;SDS011;3785;52.260;4.728;2022-11-23T08:03:55;4.63;;;2.47;;
7487;SDS011;3785;52.260;4.728;2022-11-23T08:07:16;5.25;;;2.00;;
7487;SDS011;3785;52.260;4.728;2022-11-23T08:10:36;2.90;;;1.58;;
7487;SDS011;3785;52.260;4.728;2022-11-23T08:13:58;9.90;;;1.88;;
7487;SDS011;3785;52.260;4.728;2022-11-23T08:17:18;5.20;;;2.25;;
7487;SDS011;3785;52.260;4.728;2022-11-23T08:20:39;5.20;;;1.55;;
7487;SDS011;3785;52.260;4.728;2022-11-23T08:23:59;5.95;;;1.75;;
7487;SDS011;3785;52.260;4.728;2022-11-23T08:27:20;5.38;;;1.60;;
7487;SDS011;3785;52.260;4.728;2022-11-23T08:30:41;5.13;;;1.45;;
7487;SDS011;3785;52.260;4.728;2022-11-23T08:34:02;6.00;;;1.35;;
7487;SDS011;3785;52.260;4.728;2022-11-23T08:37:23;2.72;;;0.98;;
7487;SDS011;3785;52.260;4.728;2022-11-23T08:40:43;3.25;;;1.15;;
7487;SDS011;3785;52.260;4.728;2022-11-23T08:44:04;4.05;;;1.42;;
7487;SDS011;3785;52.260;4.728;2022-11-23T08:47:29;4.00;;;1.70;;
7487;SDS011;3785;52.260;4.728;2022-11-23T08:50:50;5.53;;;1.92;;
7487;SDS011;3785;52.260;4.728;2022-11-23T08:54:11;5.47;;;1.50;;
7487;SDS011;3785;52.260;4.728;2022-11-23T08:57:32;2.47;;;1.15;;
7487;SDS011;3785;52.260;4.728;2022-11-23T09:00:53;5.07;;;1.38;;
7487;SDS011;3785;52.260;4.728;2022-11-23T09:04:13;4.72;;;1.30;;
7487;SDS011;3785;52.260;4.728;2022-11-23T09:07:34;4.00;;;1.40;;
7487;SDS011;3785;52.260;4.728;2022-11-23T09:10:58;5.70;;;1.02;;
7487;SDS011;3785;52.260;4.728;2022-11-23T09:14:19;4.20;;;1.17;;
7487;SDS011;3785;52.260;4.728;2022-11-23T09:17:41;2.75;;;1.33;;
7487;SDS011;3785;52.260;4.728;2022-11-23T09:21:02;7.85;;;1.00;;
7487;SDS011;3785;52.260;4.728;2022-11-23T09:24:24;4.53;;;1.38;;
7487;SDS011;3785;52.260;4.728;2022-11-23T09:27:47;5.53;;;1.65;;
7487;SDS011;3785;52.260;4.728;2022-11-23T09:31:08;4.57;;;1.23;;
7487;SDS011;3785;52.260;4.728;2022-11-23T09:34:28;7.10;;;1.33;;
7487;SDS011;3785;52.260;4.728;2022-11-23T09:37:58;5.35;;;1.35;;
7487;SDS011;3785;52.260;4.728;2022-11-23T09:52:01;2.97;;;1.23;;
7487;SDS011;3785;52.260;4.728;2022-11-23T09:55:41;6.20;;;1.58;;
7487;SDS011;3785;52.260;4.728;2022-11-23T09:59:04;2.58;;;0.82;;
7487;SDS011;3785;52.260;4.728;2022-11-23T10:02:41;8.35;;;1.65;;
7487;SDS011;3785;52.260;4.728;2022-11-23T10:06:06;4.57;;;1.25;;
7487;SDS011;3785;52.260;4.728;2022-11-23T10:09:52;7.75;;;1.90;;
7487;SDS011;3785;52.260;4.728;2022-11-23T10:16:52;5.20;;;1.00;;
7487;SDS011;3785;52.260;4.728;2022-11-23T10:23:55;7.05;;;1.42;;
7487;SDS011;3785;52.260;4.728;2022-11-23T10:27:35;6.40;;;1.13;;
7487;SDS011;3785;52.260;4.728;2022-11-23T10:30:59;3.45;;;1.20;;
7487;SDS011;3785;52.260;4.728;2022-11-23T10:38:12;5.53;;;1.20;;
7487;SDS011;3785;52.260;4.728;2022-11-23T10:41:34;6.70;;;1.20;;
7487;SDS011;3785;52.260;4.728;2022-11-23T10:44:54;5.57;;;1.60;;
7487;SDS011;3785;52.260;4.728;2022-11-23T10:48:35;4.70;;;1.27;;
7487;SDS011;3785;52.260;4.728;2022-11-23T10:52:03;4.95;;;1.52;;
7487;SDS011;3785;52.260;4.728;2022-11-23T10:55:46;2.35;;;1.23;;
7487;SDS011;3785;52.260;4.728;2022-11-23T10:59:08;3.88;;;1.67;;
7487;SDS011;3785;52.260;4.728;2022-11-23T11:02:55;4.25;;;1.70;;
7487;SDS011;3785;52.260;4.728;2022-11-23T11:06:21;3.78;;;1.80;;
7487;SDS011;3785;52.260;4.728;2022-11-23T11:09:47;4.88;;;1.67;;
7487;SDS011;3785;52.260;4.728;2022-11-23T11:13:19;3.05;;;1.58;;
7487;SDS011;3785;52.260;4.728;2022-11-23T11:16:58;3.80;;;1.45;;
7487;SDS011;3785;52.260;4.728;2022-11-23T11:20:32;5.25;;;2.10;;
7487;SDS011;3785;52.260;4.728;2022-11-23T11:23:58;3.85;;;1.35;;
7487;SDS011;3785;52.260;4.728;2022-11-23T11:27:23;4.70;;;1.27;;
7487;SDS011;3785;52.260;4.728;2022-11-23T11:30:58;4.70;;;1.35;;
7487;SDS011;3785;52.260;4.728;2022-11-23T11:34:48;4.72;;;1.48;;
7487;SDS011;3785;52.260;4.728;2022-11-23T11:38:30;4.75;;;1.75;;
7487;SDS011;3785;52.260;4.728;2022-11-23T11:41:53;4.13;;;1.30;;
7487;SDS011;3785;52.260;4.728;2022-11-23T11:45:23;5.55;;;1.13;;
7487;SDS011;3785;52.260;4.728;2022-11-23T11:48:53;6.22;;;1.42;;
7487;SDS011;3785;52.260;4.728;2022-11-23T11:52:20;3.58;;;1.45;;
7487;SDS011;3785;52.260;4.728;2022-11-23T11:59:23;4.93;;;1.48;;
7487;SDS011;3785;52.260;4.728;2022-11-23T12:03:07;5.35;;;1.60;;
7487;SDS011;3785;52.260;4.728;2022-11-23T12:09:54;4.63;;;2.00;;
7487;SDS011;3785;52.260;4.728;2022-11-23T12:13:31;4.97;;;1.65;;
7487;SDS011;3785;52.260;4.728;2022-11-23T12:16:56;5.28;;;1.75;;
7487;SDS011;3785;52.260;4.728;2022-11-23T12:21:21;2.80;;;1.45;;
7487;SDS011;3785;52.260;4.728;2022-11-23T12:24:26;3.05;;;1.52;;
7487;SDS011;3785;52.260;4.728;2022-11-23T12:31:49;4.22;;;1.70;;
7487;SDS011;3785;52.260;4.728;2022-11-23T12:42:59;5.70;;;1.13;;
7487;SDS011;3785;52.260;4.728;2022-11-23T12:49:52;2.15;;;1.10;;
7487;SDS011;3785;52.260;4.728;2022-11-23T13:00:51;1.98;;;0.80;;
7487;SDS011;3785;52.260;4.728;2022-11-23T13:22:52;2.83;;;0.63;;
7487;SDS011;3785;52.260;4.728;2022-11-23T13:29:52;4.10;;;0.70;;
7487;SDS011;3785;52.260;4.728;2022-11-23T13:33:27;3.05;;;0.90;;
7487;SDS011;3785;52.260;4.728;2022-11-23T13:36:58;3.63;;;0.90;;
7487;SDS011;3785;52.260;4.728;2022-11-23T13:40:42;3.58;;;1.05;;
7487;SDS011;3785;52.260;4.728;2022-11-23T13:47:37;3.40;;;0.85;;
7487;SDS011;3785;52.260;4.728;2022-11-23T13:50:58;2.55;;;0.75;;
7487;SDS011;3785;52.260;4.728;2022-11-23T13:54:20;1.15;;;0.70;;
7487;SDS011;3785;52.260;4.728;2022-11-23T13:57:42;2.78;;;0.80;;
7487;SDS011;3785;52.260;4.728;2022-11-23T14:01:04;1.92;;;0.82;;
7487;SDS011;3785;52.260;4.728;2022-11-23T14:04:26;3.30;;;0.80;;
7487;SDS011;3785;52.260;4.728;2022-11-23T14:07:48;2.90;;;0.90;;
7487;SDS011;3785;52.260;4.728;2022-11-23T14:11:11;3.28;;;0.63;;
7487;SDS011;3785;52.260;4.728;2022-11-23T14:21:34;1.92;;;0.65;;
7487;SDS011;3785;52.260;4.728;2022-11-23T14:40:20;2.75;;;0.68;;
7487;SDS011;3785;52.260;4.728;2022-11-23T14:43:49;1.10;;;0.60;;
7487;SDS011;3785;52.260;4.728;2022-11-23T14:47:10;3.50;;;0.73;;
7487;SDS011;3785;52.260;4.728;2022-11-23T14:50:31;2.53;;;0.50;;
7487;SDS011;3785;52.260;4.728;2022-11-23T14:53:53;3.17;;;0.80;;
7487;SDS011;3785;52.260;4.728;2022-11-23T14:57:15;3.05;;;0.80;;
7487;SDS011;3785;52.260;4.728;2022-11-23T15:00:38;1.08;;;0.70;;
7487;SDS011;3785;52.260;4.728;2022-11-23T15:04:16;2.03;;;0.88;;
7487;SDS011;3785;52.260;4.728;2022-11-23T15:07:52;3.53;;;0.80;;
7487;SDS011;3785;52.260;4.728;2022-11-23T15:11:18;1.85;;;0.65;;
7487;SDS011;3785;52.260;4.728;2022-11-23T15:14:41;1.67;;;0.98;;
7487;SDS011;3785;52.260;4.728;2022-11-23T15:18:03;1.70;;;1.00;;
7487;SDS011;3785;52.260;4.728;2022-11-23T15:21:24;3.75;;;0.93;;
7487;SDS011;3785;52.260;4.728;2022-11-23T15:24:45;1.77;;;0.80;;
7487;SDS011;3785;52.260;4.728;2022-11-23T15:28:11;2.63;;;0.90;;
7487;SDS011;3785;52.260;4.728;2022-11-23T15:31:34;2.28;;;0.82;;
7487;SDS011;3785;52.260;4.728;2022-11-23T15:34:56;2.15;;;0.65;;
7487;SDS011;3785;52.260;4.728;2022-11-23T15:38:17;1.85;;;0.77;;
7487;SDS011;3785;52.260;4.728;2022-11-23T15:41:38;2.95;;;0.88;;
7487;SDS011;3785;52.260;4.728;2022-11-23T15:44:59;1.20;;;0.57;;
7487;SDS011;3785;52.260;4.728;2022-11-23T15:48:27;1.85;;;0.70;;
7487;SDS011;3785;52.260;4.728;2022-11-23T15:51:51;2.60;;;0.73;;
7487;SDS011;3785;52.260;4.728;2022-11-23T15:55:13;2.30;;;0.80;;
7487;SDS011;3785;52.260;4.728;2022-11-23T15:58:34;2.78;;;0.90;;
7487;SDS011;3785;52.260;4.728;2022-11-23T16:01:55;1.92;;;0.80;;
7487;SDS011;3785;52.260;4.728;2022-11-23T16:05:18;1.20;;;0.70;;
7487;SDS011;3785;52.260;4.728;2022-11-23T16:08:43;2.97;;;1.10;;
7487;SDS011;3785;52.260;4.728;2022-11-23T16:12:20;2.45;;;0.90;;
7487;SDS011;3785;52.260;4.728;2022-11-23T16:15:56;1.88;;;1.17;;
7487;SDS011;3785;52.260;4.728;2022-11-23T16:19:26;2.10;;;1.13;;
7487;SDS011;3785;52.260;4.728;2022-11-23T16:22:49;2.05;;;1.23;;
7487;SDS011;3785;52.260;4.728;2022-11-23T16:26:10;2.38;;;1.73;;
7487;SDS011;3785;52.260;4.728;2022-11-23T16:29:33;2.80;;;1.50;;
7487;SDS011;3785;52.260;4.728;2022-11-23T16:32:55;3.83;;;1.92;;
7487;SDS011;3785;52.260;4.728;2022-11-23T16:36:17;3.53;;;2.10;;
7487;SDS011;3785;52.260;4.728;2022-11-23T16:39:38;2.92;;;2.00;;
7487;SDS011;3785;52.260;4.728;2022-11-23T16:42:58;5.50;;;2.50;;
7487;SDS011;3785;52.260;4.728;2022-11-23T16:46:19;3.35;;;2.42;;
7487;SDS011;3785;52.260;4.728;2022-11-23T16:49:40;3.67;;;2.78;;
7487;SDS011;3785;52.260;4.728;2022-11-23T16:53:14;5.35;;;2.40;;
7487;SDS011;3785;52.260;4.728;2022-11-23T16:56:35;3.40;;;2.47;;
7487;SDS011;3785;52.260;4.728;2022-11-23T16:59:55;5.15;;;2.53;;
7487;SDS011;3785;52.260;4.728;2022-11-23T17:03:17;3.55;;;2.20;;
7487;SDS011;3785;52.260;4.728;2022-11-23T17:06:39;3.38;;;2.38;;
7487;SDS011;3785;52.260;4.728;2022-11-23T17:10:01;3.78;;;2.60;;
7487;SDS011;3785;52.260;4.728;2022-11-23T17:17:39;3.00;;;2.30;;
7487;SDS011;3785;52.260;4.728;2022-11-23T17:20:59;2.92;;;2.13;;
7487;SDS011;3785;52.260;4.728;2022-11-23T17:24:20;3.92;;;2.20;;
7487;SDS011;3785;52.260;4.728;2022-11-23T17:27:41;3.17;;;2.13;;
7487;SDS011;3785;52.260;4.728;2022-11-23T17:31:02;6.05;;;2.10;;
7487;SDS011;3785;52.260;4.728;2022-11-23T17:34:23;4.05;;;2.17;;
7487;SDS011;3785;52.260;4.728;2022-11-23T17:37:43;3.20;;;2.15;;
7487;SDS011;3785;52.260;4.728;2022-11-23T17:41:05;4.03;;;2.42;;
7487;SDS011;3785;52.260;4.728;2022-11-23T17:44:25;4.68;;;2.20;;
7487;SDS011;3785;52.260;4.728;2022-11-23T17:47:46;4.60;;;2.25;;
7487;SDS011;3785;52.260;4.728;2022-11-23T17:51:08;7.50;;;2.90;;
7487;SDS011;3785;52.260;4.728;2022-11-23T17:54:31;5.28;;;2.92;;
7487;SDS011;3785;52.260;4.728;2022-11-23T17:57:52;3.65;;;2.58;;
7487;SDS011;3785;52.260;4.728;2022-11-23T18:01:13;4.38;;;2.90;;
7487;SDS011;3785;52.260;4.728;2022-11-23T18:04:35;2.38;;;1.83;;
7487;SDS011;3785;52.260;4.728;2022-11-23T18:07:55;4.63;;;2.50;;
7487;SDS011;3785;52.260;4.728;2022-11-23T18:11:16;3.10;;;2.20;;
7487;SDS011;3785;52.260;4.728;2022-11-23T18:14:37;3.88;;;2.75;;
7487;SDS011;3785;52.260;4.728;2022-11-23T18:17:57;3.58;;;2.42;;
7487;SDS011;3785;52.260;4.728;2022-11-23T18:21:18;3.75;;;2.42;;
7487;SDS011;3785;52.260;4.728;2022-11-23T18:24:39;4.38;;;2.60;;
7487;SDS011;3785;52.260;4.728;2022-11-23T18:27:59;4.22;;;2.05;;
7487;SDS011;3785;52.260;4.728;2022-11-23T18:31:20;6.13;;;2.17;;
7487;SDS011;3785;52.260;4.728;2022-11-23T18:34:40;3.25;;;2.33;;
7487;SDS011;3785;52.260;4.728;2022-11-23T18:38:01;3.22;;;1.83;;
7487;SDS011;3785;52.260;4.728;2022-11-23T18:41:22;4.05;;;2.35;;
7487;SDS011;3785;52.260;4.728;2022-11-23T18:44:42;2.80;;;2.00;;
7487;SDS011;3785;52.260;4.728;2022-11-23T18:48:03;4.72;;;1.92;;
7487;SDS011;3785;52.260;4.728;2022-11-23T18:51:25;3.88;;;2.45;;
7487;SDS011;3785;52.260;4.728;2022-11-23T18:54:46;5.93;;;2.10;;
7487;SDS011;3785;52.260;4.728;2022-11-23T18:58:06;4.40;;;1.92;;
7487;SDS011;3785;52.260;4.728;2022-11-23T19:01:27;4.22;;;2.20;;
7487;SDS011;3785;52.260;4.728;2022-11-23T19:04:47;4.82;;;2.05;;
7487;SDS011;3785;52.260;4.728;2022-11-23T19:08:13;3.53;;;2.00;;
7487;SDS011;3785;52.260;4.728;2022-11-23T19:11:36;4.15;;;2.03;;
7487;SDS011;3785;52.260;4.728;2022-11-23T19:14:56;4.35;;;2.08;;
7487;SDS011;3785;52.260;4.728;2022-11-23T19:18:17;5.95;;;2.38;;
7487;SDS011;3785;52.260;4.728;2022-11-23T19:21:37;4.00;;;2.05;;
7487;SDS011;3785;52.260;4.728;2022-11-23T19:24:58;3.60;;;1.95;;
7487;SDS011;3785;52.260;4.728;2022-11-23T19:28:18;5.30;;;2.08;;
7487;SDS011;3785;52.260;4.728;2022-11-23T19:31:39;3.30;;;1.88;;
7487;SDS011;3785;52.260;4.728;2022-11-23T19:35:00;5.13;;;1.95;;
7487;SDS011;3785;52.260;4.728;2022-11-23T19:38:20;2.70;;;1.65;;
7487;SDS011;3785;52.260;4.728;2022-11-23T19:41:41;4.78;;;2.28;;
7487;SDS011;3785;52.260;4.728;2022-11-23T19:45:03;3.90;;;2.15;;
7487;SDS011;3785;52.260;4.728;2022-11-23T19:48:27;5.38;;;2.00;;
7487;SDS011;3785;52.260;4.728;2022-11-23T19:51:49;5.93;;;2.22;;
7487;SDS011;3785;52.260;4.728;2022-11-23T19:55:12;4.50;;;1.80;;
7487;SDS011;3785;52.260;4.728;2022-11-23T19:58:33;5.22;;;2.40;;
7487;SDS011;3785;52.260;4.728;2022-11-23T20:01:55;6.72;;;2.28;;
7487;SDS011;3785;52.260;4.728;2022-11-23T20:05:15;6.35;;;1.83;;
7487;SDS011;3785;52.260;4.728;2022-11-23T20:08:36;6.22;;;2.15;;
7487;SDS011;3785;52.260;4.728;2022-11-23T20:11:57;3.60;;;2.33;;
7487;SDS011;3785;52.260;4.728;2022-11-23T20:15:19;5.53;;;2.17;;
7487;SDS011;3785;52.260;4.728;2022-11-23T20:18:40;5.82;;;2.33;;
7487;SDS011;3785;52.260;4.728;2022-11-23T20:22:02;3.47;;;1.75;;
7487;SDS011;3785;52.260;4.728;2022-11-23T20:25:22;3.40;;;1.67;;
7487;SDS011;3785;52.260;4.728;2022-11-23T20:28:47;4.43;;;2.35;;
7487;SDS011;3785;52.260;4.728;2022-11-23T20:32:10;4.35;;;1.75;;
7487;SDS011;3785;52.260;4.728;2022-11-23T20:35:32;4.50;;;1.60;;
7487;SDS011;3785;52.260;4.728;2022-11-23T20:38:52;6.57;;;2.20;;
7487;SDS011;3785;52.260;4.728;2022-11-23T20:42:13;5.65;;;2.17;;
7487;SDS011;3785;52.260;4.728;2022-11-23T20:45:34;6.20;;;1.83;;
7487;SDS011;3785;52.260;4.728;2022-11-23T20:48:54;5.45;;;2.03;;
7487;SDS011;3785;52.260;4.728;2022-11-23T20:52:16;5.95;;;1.70;;
7487;SDS011;3785;52.260;4.728;2022-11-23T20:55:40;5.82;;;1.80;;
7487;SDS011;3785;52.260;4.728;2022-11-23T20:59:00;4.47;;;1.52;;
7487;SDS011;3785;52.260;4.728;2022-11-23T21:02:23;6.72;;;2.08;;
7487;SDS011;3785;52.260;4.728;2022-11-23T21:05:43;4.88;;;1.48;;
7487;SDS011;3785;52.260;4.728;2022-11-23T21:09:04;7.38;;;2.25;;
7487;SDS011;3785;52.260;4.728;2022-11-23T21:12:24;4.60;;;2.17;;
7487;SDS011;3785;52.260;4.728;2022-11-23T21:16:04;5.57;;;2.33;;
7487;SDS011;3785;52.260;4.728;2022-11-23T21:19:32;4.60;;;2.15;;
7487;SDS011;3785;52.260;4.728;2022-11-23T21:22:55;4.25;;;1.88;;
7487;SDS011;3785;52.260;4.728;2022-11-23T21:26:15;6.20;;;2.20;;
7487;SDS011;3785;52.260;4.728;2022-11-23T21:29:36;4.72;;;1.73;;
7487;SDS011;3785;52.260;4.728;2022-11-23T21:32:57;6.25;;;1.92;;
7487;SDS011;3785;52.260;4.728;2022-11-23T21:36:17;6.63;;;1.52;;
7487;SDS011;3785;52.260;4.728;2022-11-23T21:39:38;3.97;;;1.52;;
7487;SDS011;3785;52.260;4.728;2022-11-23T21:43:00;5.30;;;1.48;;
7487;SDS011;3785;52.260;4.728;2022-11-23T21:46:20;9.50;;;2.47;;
7487;SDS011;3785;52.260;4.728;2022-11-23T21:49:42;6.10;;;2.25;;
7487;SDS011;3785;52.260;4.728;2022-11-23T21:53:03;7.40;;;1.88;;
7487;SDS011;3785;52.260;4.728;2022-11-23T21:56:23;5.97;;;1.77;;
7487;SDS011;3785;52.260;4.728;2022-11-23T21:59:44;6.50;;;2.08;;
7487;SDS011;3785;52.260;4.728;2022-11-23T22:03:05;4.13;;;1.85;;
7487;SDS011;3785;52.260;4.728;2022-11-23T22:06:25;5.65;;;2.30;;
7487;SDS011;3785;52.260;4.728;2022-11-23T22:09:46;5.75;;;2.42;;
7487;SDS011;3785;52.260;4.728;2022-11-23T22:13:07;9.90;;;2.15;;
7487;SDS011;3785;52.260;4.728;2022-11-23T22:16:38;5.00;;;1.70;;
7487;SDS011;3785;52.260;4.728;2022-11-23T22:19:59;8.00;;;1.73;;
7487;SDS011;3785;52.260;4.728;2022-11-23T22:23:20;6.78;;;1.88;;
7487;SDS011;3785;52.260;4.728;2022-11-23T22:26:41;6.82;;;2.30;;
7487;SDS011;3785;52.260;4.728;2022-11-23T22:30:02;4.43;;;1.85;;
7487;SDS011;3785;52.260;4.728;2022-11-23T22:33:23;9.00;;;2.03;;
7487;SDS011;3785;52.260;4.728;2022-11-23T22:36:44;4.15;;;1.77;;
7487;SDS011;3785;52.260;4.728;2022-11-23T22:40:04;6.78;;;2.25;;
7487;SDS011;3785;52.260;4.728;2022-11-23T22:43:26;6.95;;;1.60;;
7487;SDS011;3785;52.260;4.728;2022-11-23T22:46:46;7.20;;;1.63;;
7487;SDS011;3785;52.260;4.728;2022-11-23T22:50:07;9.00;;;2.55;;